Time;durP1;ratioP1;P1;durP2;ratioP2;P2;SDS_P1;SDS_P2;PMS_P1;PMS_P2;Temp;Humidity;BMP_temperature;BMP_pressure;BME280_temperature;BME280_humidity;BME280_pressure;Samples;Min_cycle;Max_cycle;Signal;HPM_P1;HPM_P2
2021/04/17 00:02:25;;;;;;;9.15;6.53;;;;;;;1.82;63.29;97409.34;1722054;83;21590;-79
2021/04/17 00:04:53;;;;;;;8.50;5.78;;;;;;;1.89;63.31;97410.42;1716274;83;21131;-77
2021/04/17 00:07:20;;;;;;;10.60;5.90;;;;;;;1.91;63.35;97415.08;1716445;84;21152;-76
2021/04/17 00:09:47;;;;;;;8.93;5.08;;;;;;;1.94;63.45;97414.97;1684211;83;21160;-76
2021/04/17 00:12:19;;;;;;;7.87;5.40;;;;;;;1.98;63.66;97409.58;1699131;84;21152;-77
2021/04/17 00:14:51;;;;;;;8.28;5.62;;;;;;;1.94;63.59;97410.63;1716739;83;21153;-76
2021/04/17 00:17:20;;;;;;;7.60;5.22;;;;;;;1.91;63.76;97410.74;1716309;84;21534;-76
2021/04/17 00:19:53;;;;;;;8.03;5.20;;;;;;;1.94;63.89;97401.97;1722482;83;21116;-79
2021/04/17 00:22:21;;;;;;;7.08;5.80;;;;;;;1.91;63.83;97404.25;1722819;83;21542;-80
2021/04/17 00:24:48;;;;;;;9.93;6.17;;;;;;;1.86;63.92;97404.43;1723145;83;21163;-75
2021/04/17 00:27:16;;;;;;;12.23;6.62;;;;;;;1.81;63.78;97410.25;1729630;82;21735;-75
2021/04/17 00:29:43;;;;;;;11.35;6.37;;;;;;;1.77;63.81;97405.23;1698726;83;21103;-80
2021/04/17 00:32:11;;;;;;;8.97;6.27;;;;;;;1.67;63.77;97404.77;1695024;85;21158;-75
2021/04/17 00:34:39;;;;;;;9.13;6.78;;;;;;;1.60;63.92;97401.55;1695140;85;21203;-79
2021/04/17 00:37:08;;;;;;;10.23;7.12;;;;;;;1.54;64.07;97407.84;1719321;83;21258;-82
2021/04/17 00:39:38;;;;;;;12.43;6.78;;;;;;;1.51;64.13;97400.62;1730049;82;21135;-76
2021/04/17 00:42:06;;;;;;;9.28;7.35;;;;;;;1.45;64.14;97402.16;1729456;83;21157;-80
2021/04/17 00:44:35;;;;;;;10.28;6.95;;;;;;;1.40;64.21;97400.58;1729615;82;21585;-82
2021/04/17 00:47:07;;;;;;;8.50;6.58;;;;;;;1.37;64.53;97396.82;1718958;82;21146;-83
2021/04/17 00:49:36;;;;;;;13.75;6.37;;;;;;;1.35;64.43;97397.76;1667405;85;21171;-76
2021/04/17 00:52:05;;;;;;;12.70;6.67;;;;;;;1.31;64.51;97394.90;1694945;85;21587;-76
2021/04/17 00:54:33;;;;;;;13.00;7.03;;;;;;;1.29;64.55;97392.38;1705274;83;21107;-76
2021/04/17 00:57:00;;;;;;;10.38;6.67;;;;;;;1.22;64.83;97394.78;1702531;82;21171;-74
2021/04/17 00:59:27;;;;;;;13.95;7.25;;;;;;;1.14;64.52;97395.09;1695126;84;21140;-75
2021/04/17 01:01:55;;;;;;;10.95;7.08;;;;;;;1.11;64.96;97390.00;1701336;83;21154;-78
2021/04/17 01:04:32;;;;;;;11.55;6.45;;;;;;;1.09;65.13;97391.80;1694784;84;21568;-77
2021/04/17 01:07:20;;;;;;;11.90;6.85;;;;;;;1.05;65.06;97398.87;1694333;83;21191;-77
2021/04/17 01:10:10;;;;;;;12.85;7.72;;;;;;;1.02;65.26;97395.08;1698875;83;21136;-78
2021/04/17 01:12:41;;;;;;;8.45;5.97;;;;;;;1.01;65.35;97396.01;1694381;83;21575;-77
2021/04/17 01:15:13;;;;;;;7.67;5.80;;;;;;;0.99;65.82;97390.45;1707225;83;21198;-75
2021/04/17 01:17:44;;;;;;;8.30;5.97;;;;;;;0.96;65.60;97391.42;1728950;82;21608;-77
2021/04/17 01:20:47;;;;;;;9.33;6.10;;;;;;;0.95;65.68;97391.02;1723883;83;21118;-75
2021/04/17 01:23:25;;;;;;;10.40;6.22;;;;;;;0.91;65.46;97394.65;1728643;82;21156;-77
2021/04/17 01:26:00;;;;;;;10.68;6.37;;;;;;;0.81;65.60;97394.12;1728254;82;21181;-75
2021/04/17 01:28:32;;;;;;;14.27;6.13;;;;;;;0.78;65.77;97395.55;1725741;83;21123;-76
2021/04/17 01:31:01;;;;;;;8.83;6.08;;;;;;;0.76;65.87;97387.80;1701539;82;21115;-76
2021/04/17 01:33:33;;;;;;;11.80;6.35;;;;;;;0.75;65.97;97388.70;1694443;84;21205;-77
2021/04/17 01:36:04;;;;;;;12.05;6.17;;;;;;;0.82;66.22;97388.03;1709928;83;21116;-76
2021/04/17 01:38:57;;;;;;;11.48;6.22;;;;;;;0.83;66.17;97385.83;1700295;82;21151;-75
2021/04/17 01:41:31;;;;;;;8.85;5.65;;;;;;;0.89;66.34;97386.06;1669250;85;21155;-76
2021/04/17 01:44:05;;;;;;;10.10;6.35;;;;;;;0.97;66.39;97385.33;1691271;85;21195;-76
2021/04/17 01:46:37;;;;;;;11.35;6.10;;;;;;;1.05;66.41;97380.69;1688247;83;21148;-78
2021/04/17 01:51:52;;;;;;;7.47;5.95;;;;;;;1.18;66.57;97388.03;1723707;83;21169;-86
2021/04/17 01:54:26;;;;;;;10.03;6.83;;;;;;;1.19;66.43;97384.06;1717223;83;21282;-83
2021/04/17 01:57:01;;;;;;;10.45;6.55;;;;;;;1.20;66.33;97384.93;1716816;83;21279;-83
2021/04/17 01:59:32;;;;;;;7.90;5.67;;;;;;;1.17;66.07;97389.77;1719448;83;21137;-83
2021/04/17 02:02:00;;;;;;;12.43;6.70;;;;;;;1.09;65.98;97389.20;1724056;83;21320;-81
2021/04/17 02:04:28;;;;;;;10.23;7.37;;;;;;;1.04;66.11;97391.98;1723665;83;21190;-85
2021/04/17 02:06:56;;;;;;;13.60;7.65;;;;;;;1.02;66.19;97389.88;1718997;83;21248;-78
2021/04/17 02:09:23;;;;;;;10.65;7.60;;;;;;;0.97;65.83;97393.11;1717132;83;21141;-84
2021/04/17 02:11:50;;;;;;;13.15;8.75;;;;;;;0.92;66.22;97385.96;1716914;83;21315;-79
2021/04/17 02:14:17;;;;;;;10.72;8.05;;;;;;;0.86;66.42;97384.44;1716777;83;21159;-79
2021/04/17 02:17:07;;;;;;;9.68;6.42;;;;;;;0.83;66.57;97381.94;1715935;83;21267;-79
2021/04/17 02:19:50;;;;;;;10.93;6.33;;;;;;;0.77;66.81;97375.69;1723364;83;21263;-82
2021/04/17 02:22:18;;;;;;;10.88;6.72;;;;;;;0.71;66.78;97379.34;1723768;83;21170;-78
2021/04/17 02:24:47;;;;;;;10.43;6.10;;;;;;;0.68;66.79;97385.10;1721823;83;21247;-80
2021/04/17 02:27:17;;;;;;;12.18;6.78;;;;;;;0.66;66.99;97384.30;1715032;84;21282;-80
2021/04/17 02:29:56;;;;;;;10.73;7.20;;;;;;;0.61;66.68;97382.70;1715198;84;21279;-76
2021/04/17 02:32:25;;;;;;;7.95;5.75;;;;;;;0.61;66.84;97385.77;1714127;84;21313;-85
2021/04/17 02:34:53;;;;;;;9.53;5.73;;;;;;;0.61;66.86;97381.41;1715114;83;21096;-80
2021/04/17 02:37:21;;;;;;;8.45;6.53;;;;;;;0.57;67.21;97380.27;1688883;83;21203;-80
2021/04/17 02:39:48;;;;;;;8.77;6.20;;;;;;;0.57;67.28;97378.98;1717623;83;21243;-84
2021/04/17 02:42:16;;;;;;;20.92;7.55;;;;;;;0.55;67.30;97382.09;1714919;84;21610;-81
2021/04/17 02:44:44;;;;;;;10.13;7.17;;;;;;;0.53;67.23;97379.54;1715105;84;21299;-77
2021/04/17 02:47:12;;;;;;;10.63;7.47;;;;;;;0.54;67.21;97386.89;1715056;84;21164;-84
2021/04/17 02:49:40;;;;;;;10.53;7.17;;;;;;;0.52;67.00;97383.03;1715242;83;21287;-77
2021/04/17 02:52:07;;;;;;;13.05;8.45;;;;;;;0.52;67.26;97377.01;1700511;84;21174;-82
2021/04/17 02:54:35;;;;;;;14.10;8.08;;;;;;;0.49;67.08;97380.56;1698188;85;21197;-77
2021/04/17 02:57:02;;;;;;;12.15;7.95;;;;;;;0.49;67.34;97385.75;1708182;84;21153;-80
2021/04/17 02:59:29;;;;;;;11.40;7.00;;;;;;;0.48;67.40;97378.87;1696829;84;21733;-82
2021/04/17 03:01:56;;;;;;;11.05;7.55;;;;;;;0.45;67.37;97373.34;1660991;86;21155;-77
2021/04/17 03:04:24;;;;;;;11.18;7.67;;;;;;;0.43;67.33;97376.44;1657194;86;21309;-80
2021/04/17 03:06:51;;;;;;;11.00;7.40;;;;;;;0.42;67.33;97370.84;1658638;87;21170;-77
2021/04/17 03:09:18;;;;;;;10.82;7.33;;;;;;;0.43;67.69;97376.87;1649477;87;21656;-77
2021/04/17 03:11:46;;;;;;;13.77;6.97;;;;;;;0.43;67.83;97372.98;1700547;84;21125;-81
2021/04/17 03:14:13;;;;;;;11.60;7.65;;;;;;;0.40;67.84;97375.23;1698425;85;21154;-78
2021/04/17 03:16:40;;;;;;;13.27;7.67;;;;;;;0.36;67.69;97374.10;1699378;84;21157;-77
2021/04/17 03:19:08;;;;;;;15.15;9.30;;;;;;;0.32;67.68;97372.06;1705658;84;21279;-80
2021/04/17 03:21:36;;;;;;;14.07;8.63;;;;;;;0.28;68.68;97373.92;1685755;85;21161;-77
2021/04/17 03:24:04;;;;;;;12.83;7.87;;;;;;;0.23;67.83;97378.87;1685716;85;21150;-79
2021/04/17 03:26:31;;;;;;;14.23;8.35;;;;;;;0.21;67.77;97377.63;1708517;84;21774;-76
2021/04/17 03:29:02;;;;;;;14.53;9.95;;;;;;;0.20;67.96;97375.94;1712493;84;21737;-81
2021/04/17 03:31:29;;;;;;;17.70;9.33;;;;;;;0.20;68.19;97372.48;1704883;84;21307;-82
2021/04/17 03:33:56;;;;;;;17.92;8.48;;;;;;;0.20;68.31;97375.94;1705105;84;21133;-83
2021/04/17 03:36:23;;;;;;;16.53;8.93;;;;;;;0.19;68.36;97372.94;1708162;84;21194;-76
2021/04/17 03:38:51;;;;;;;17.57;8.65;;;;;;;0.19;68.94;97363.86;1708275;84;21268;-81
2021/04/17 03:41:18;;;;;;;14.07;8.57;;;;;;;0.19;68.89;97372.08;1698517;85;21157;-86
2021/04/17 03:43:47;;;;;;;12.60;8.00;;;;;;;0.20;68.78;97374.64;1708178;84;21140;-80
2021/04/17 03:46:15;;;;;;;12.17;8.00;;;;;;;0.22;68.58;97370.69;1708351;84;21214;-83
2021/04/17 03:48:42;;;;;;;15.10;7.90;;;;;;;0.24;68.69;97376.20;1704994;84;21110;-81
2021/04/17 03:51:09;;;;;;;12.53;8.40;;;;;;;0.28;68.91;97381.70;1705462;83;21185;-83
2021/04/17 03:53:36;;;;;;;14.73;8.80;;;;;;;0.36;69.09;97384.47;1705496;84;21145;-77
2021/04/17 03:56:04;;;;;;;14.50;9.03;;;;;;;0.40;68.77;97384.78;1705329;84;21260;-81
2021/04/17 03:58:32;;;;;;;15.23;9.70;;;;;;;0.48;68.67;97384.05;1705133;84;21322;-80
2021/04/17 04:01:00;;;;;;;15.43;10.70;;;;;;;0.52;68.59;97389.98;1699647;82;21582;-76
2021/04/17 04:03:27;;;;;;;18.63;10.63;;;;;;;0.53;69.08;97386.02;1719896;82;21118;-80
2021/04/17 04:05:54;;;;;;;20.70;11.80;;;;;;;0.55;68.72;97388.59;1743473;82;21159;-75
2021/04/17 04:08:22;;;;;;;25.68;14.03;;;;;;;0.55;68.77;97384.23;1739548;82;21115;-77
2021/04/17 04:10:49;;;;;;;23.38;13.72;;;;;;;0.57;68.41;97386.33;1699358;84;21301;-80
2021/04/17 04:13:16;;;;;;;20.60;11.78;;;;;;;0.56;68.48;97391.55;1708608;84;21291;-78
2021/04/17 04:15:44;;;;;;;16.07;9.83;;;;;;;0.57;68.79;97387.63;1699393;84;21166;-77
2021/04/17 04:18:11;;;;;;;16.50;10.37;;;;;;;0.61;69.03;97390.48;1704504;82;21128;-81
2021/04/17 04:20:38;;;;;;;14.67;8.77;;;;;;;0.66;69.00;97391.63;1705120;84;21168;-77
2021/04/17 04:23:06;;;;;;;14.03;8.30;;;;;;;0.70;68.76;97391.06;1705647;84;21259;-79
2021/04/17 04:25:34;;;;;;;16.33;11.13;;;;;;;0.69;68.41;97389.39;1705394;84;21157;-78
2021/04/17 04:28:04;;;;;;;17.00;10.20;;;;;;;0.74;68.42;97391.36;1713566;82;21236;-83
2021/04/17 04:30:32;;;;;;;17.82;10.15;;;;;;;0.76;68.33;97383.91;1740661;82;21103;-80
2021/04/17 04:32:59;;;;;;;13.32;9.18;;;;;;;0.78;68.46;97390.36;1743739;82;21576;-80
2021/04/17 04:35:27;;;;;;;17.40;9.57;;;;;;;0.85;68.61;97391.83;1743644;82;21162;-82
2021/04/17 04:37:54;;;;;;;14.80;9.75;;;;;;;1.21;68.89;97394.39;1736581;82;21268;-86
2021/04/17 04:40:23;;;;;;;14.58;9.43;;;;;;;1.79;69.37;97389.99;1705558;84;21177;-80
2021/04/17 04:42:51;;;;;;;11.00;8.43;;;;;;;2.48;68.66;97388.86;1707871;83;21149;-82
2021/04/17 04:45:18;;;;;;;13.18;9.20;;;;;;;3.13;67.80;97380.80;1707881;84;21280;-75
2021/04/17 04:47:47;;;;;;;19.95;9.03;;;;;;;3.87;66.34;97383.45;1698337;85;21157;-82
2021/04/17 04:50:15;;;;;;;13.98;8.23;;;;;;;4.59;64.94;97379.03;1698453;84;21154;-75
2021/04/17 04:52:42;;;;;;;17.90;9.53;;;;;;;5.19;63.42;97384.16;1698394;85;21138;-80
2021/04/17 04:55:10;;;;;;;17.82;10.35;;;;;;;5.82;61.90;97386.37;1692349;84;21157;-77
2021/04/17 04:57:38;;;;;;;21.70;9.00;;;;;;;6.46;60.21;97386.23;1647803;87;21273;-77
2021/04/17 05:00:07;;;;;;;19.65;8.63;;;;;;;7.17;58.43;97379.37;1652980;85;21392;-79
2021/04/17 05:02:35;;;;;;;16.07;8.93;;;;;;;7.78;55.78;97381.67;1699841;84;21141;-78
2021/04/17 05:05:03;;;;;;;16.90;8.40;;;;;;;8.38;53.97;97376.91;1671079;86;21173;-75
2021/04/17 05:07:30;;;;;;;10.90;8.23;;;;;;;8.94;53.21;97374.50;1647293;85;21195;-82
2021/04/17 05:09:58;;;;;;;20.45;9.28;;;;;;;9.49;52.31;97379.45;1650450;85;21635;-76
2021/04/17 05:12:25;;;;;;;13.32;8.70;;;;;;;10.03;51.20;97371.59;1671433;84;21315;-79
2021/04/17 05:14:52;;;;;;;10.90;7.78;;;;;;;10.56;49.70;97363.30;1704311;84;21168;-86
2021/04/17 05:17:20;;;;;;;12.20;7.78;;;;;;;10.90;48.78;97369.92;1703922;84;21184;-76
2021/04/17 05:19:47;;;;;;;10.68;7.70;;;;;;;11.11;45.14;97367.91;1704025;82;21144;-86
2021/04/17 05:22:15;;;;;;;11.68;7.90;;;;;;;11.46;46.18;97367.41;1701118;82;21137;-79
2021/04/17 05:24:42;;;;;;;12.70;7.67;;;;;;;11.77;45.67;97366.27;1684078;85;21181;-80
2021/04/17 05:27:09;;;;;;;11.28;7.55;;;;;;;11.93;45.57;97365.38;1674863;84;21144;-86
2021/04/17 05:29:37;;;;;;;9.10;7.47;;;;;;;12.11;44.06;97363.55;1663965;84;21156;-76
2021/04/17 05:32:05;;;;;;;10.25;7.35;;;;;;;12.17;44.19;97364.34;1627405;86;21180;-82
2021/04/17 05:34:33;;;;;;;12.47;7.12;;;;;;;12.31;42.88;97368.02;1620715;88;21153;-75
2021/04/17 05:37:00;;;;;;;13.03;7.58;;;;;;;12.65;43.39;97357.75;1648935;86;21311;-81
2021/04/17 05:39:28;;;;;;;11.68;7.08;;;;;;;12.97;42.52;97362.08;1653955;87;21183;-83
2021/04/17 05:41:55;;;;;;;10.18;6.62;;;;;;;13.38;41.88;97365.61;1674603;85;21162;-79
2021/04/17 05:44:23;;;;;;;9.15;6.80;;;;;;;13.79;40.85;97358.11;1654286;86;21194;-81
2021/04/17 05:46:50;;;;;;;15.13;6.97;;;;;;;14.12;39.56;97356.89;1653741;85;21631;-80
2021/04/17 05:49:17;;;;;;;13.78;8.18;;;;;;;14.45;39.36;97362.76;1654188;85;21185;-80
2021/04/17 05:51:45;;;;;;;8.90;6.50;;;;;;;14.56;40.42;97361.75;1644452;85;21637;-79
2021/04/17 05:54:13;;;;;;;10.13;6.90;;;;;;;14.75;38.03;97363.59;1658823;86;21172;-76
2021/04/17 05:56:41;;;;;;;23.38;12.33;;;;;;;14.72;38.22;97355.05;1670941;85;21159;-78
2021/04/17 05:59:09;;;;;;;10.48;6.47;;;;;;;14.41;39.77;97354.72;1677951;85;21624;-76
2021/04/17 06:01:36;;;;;;;16.75;9.55;;;;;;;14.17;37.67;97359.13;1715030;84;21582;-77
2021/04/17 06:04:05;;;;;;;20.23;9.10;;;;;;;14.12;39.88;97358.72;1715008;84;21687;-76
2021/04/17 06:06:33;;;;;;;13.05;7.92;;;;;;;14.14;39.55;97358.92;1712015;84;21114;-82
2021/04/17 06:09:01;;;;;;;14.90;9.53;;;;;;;14.28;39.98;97347.06;1703141;84;21129;-76
2021/04/17 06:11:28;;;;;;;15.53;8.38;;;;;;;14.21;40.29;97352.08;1707887;84;21149;-79
2021/04/17 06:13:55;;;;;;;17.32;7.40;;;;;;;13.80;38.82;97349.20;1707883;84;21131;-84
2021/04/17 06:16:22;;;;;;;15.93;10.25;;;;;;;13.64;39.73;97349.25;1708060;84;21164;-76
2021/04/17 06:18:52;;;;;;;13.62;9.30;;;;;;;13.53;39.54;97350.69;1712534;84;21133;-83
2021/04/17 06:21:19;;;;;;;7.78;6.55;;;;;;;13.39;39.56;97354.08;1706292;84;21145;-78
2021/04/17 06:23:46;;;;;;;12.90;8.45;;;;;;;13.17;38.83;97354.23;1703788;84;21097;-79
2021/04/17 06:26:14;;;;;;;15.80;8.90;;;;;;;12.70;39.79;97353.39;1709998;84;21735;-76
2021/04/17 06:28:41;;;;;;;6.45;5.75;;;;;;;12.58;40.25;97350.81;1715189;84;21611;-77
2021/04/17 06:31:08;;;;;;;11.73;8.70;;;;;;;12.52;39.00;97352.66;1705639;84;21110;-78
2021/04/17 06:33:36;;;;;;;14.78;8.15;;;;;;;11.98;40.23;97349.19;1705488;84;21169;-75
2021/04/17 06:36:06;;;;;;;17.55;9.78;;;;;;;12.14;40.38;97350.91;1705564;84;21115;-77
2021/04/17 06:38:33;;;;;;;17.25;8.93;;;;;;;12.21;41.00;97348.61;1702032;84;21145;-78
2021/04/17 06:41:02;;;;;;;10.00;8.18;;;;;;;12.41;41.07;97351.40;1707361;83;21579;-74
2021/04/17 06:43:34;;;;;;;7.10;5.62;;;;;;;12.50;39.64;97348.80;1713824;84;21180;-78
2021/04/17 06:46:03;;;;;;;14.15;8.65;;;;;;;12.09;39.31;97350.94;1712021;84;21145;-79
2021/04/17 06:48:33;;;;;;;10.18;7.33;;;;;;;11.55;39.90;97345.05;1701165;84;21176;-73
2021/04/17 06:51:04;;;;;;;7.42;6.50;;;;;;;11.44;40.10;97346.89;1701005;84;21149;-76
2021/04/17 06:53:35;;;;;;;9.48;7.75;;;;;;;11.23;40.51;97343.66;1701102;83;21185;-77
2021/04/17 06:56:04;;;;;;;11.10;8.65;;;;;;;10.81;40.04;97343.44;1700864;84;21157;-80
2021/04/17 06:58:31;;;;;;;9.05;8.10;;;;;;;10.90;41.44;97339.59;1705121;83;21180;-75
2021/04/17 07:01:00;;;;;;;17.82;7.92;;;;;;;10.94;41.33;97338.41;1706067;84;21152;-81
2021/04/17 07:03:27;;;;;;;8.55;7.33;;;;;;;10.74;41.11;97330.74;1709912;84;21565;-76
2021/04/17 07:05:55;;;;;;;9.20;7.60;;;;;;;10.62;41.43;97337.77;1713738;82;21157;-78
2021/04/17 07:08:22;;;;;;;10.05;7.75;;;;;;;10.43;41.57;97333.08;1711404;83;21574;-82
2021/04/17 07:10:49;;;;;;;9.98;8.30;;;;;;;10.67;42.10;97328.20;1706643;84;21137;-77
2021/04/17 07:13:18;;;;;;;8.35;7.12;;;;;;;10.71;42.05;97335.42;1701196;84;21145;-82
2021/04/17 07:15:47;;;;;;;9.28;8.33;;;;;;;10.56;42.34;97336.11;1700961;84;21145;-78
2021/04/17 07:18:30;;;;;;;10.75;8.30;;;;;;;10.69;42.73;97332.87;1702512;84;21573;-79
2021/04/17 07:21:17;;;;;;;9.08;7.85;;;;;;;10.97;42.12;97333.37;1732066;82;21160;-80
2021/04/17 07:23:47;;;;;;;11.50;7.90;;;;;;;11.35;41.43;97332.64;1697568;84;21117;-79
2021/04/17 07:26:24;;;;;;;9.40;8.23;;;;;;;11.75;42.13;97323.30;1707718;84;21201;-79
2021/04/17 07:29:06;;;;;;;11.22;8.78;;;;;;;12.18;41.52;97323.28;1708315;83;21173;-74
2021/04/17 07:31:35;;;;;;;6.17;5.37;;;;;;;12.32;41.06;97329.20;1699871;83;21110;-78
2021/04/17 07:34:17;;;;;;;13.03;8.68;;;;;;;12.27;41.31;97324.30;1708042;82;21578;-76
2021/04/17 07:36:56;;;;;;;10.08;8.10;;;;;;;12.31;41.39;97322.23;1687753;85;21160;-73
2021/04/17 07:39:42;;;;;;;10.30;6.87;;;;;;;12.53;39.63;97324.41;1708716;82;21169;-79
2021/04/17 07:42:13;;;;;;;6.58;5.85;;;;;;;12.21;35.90;97327.93;1687796;85;21622;-81
2021/04/17 07:44:44;;;;;;;7.20;6.35;;;;;;;12.09;37.03;97313.95;1700226;84;21176;-77
2021/04/17 07:47:32;;;;;;;9.58;7.42;;;;;;;11.83;38.59;97316.91;1720443;82;21136;-77
2021/04/17 07:50:09;;;;;;;7.87;7.00;;;;;;;11.53;37.79;97319.29;1714941;82;21149;-82
2021/04/17 07:52:38;;;;;;;8.83;7.42;;;;;;;11.47;38.21;97313.16;1714400;82;21622;-75
2021/04/17 07:55:10;;;;;;;10.88;6.92;;;;;;;11.50;38.79;97303.69;1725788;82;21181;-79
2021/04/17 07:57:49;;;;;;;7.65;6.67;;;;;;;11.59;38.56;97307.86;1711140;83;21193;-79
2021/04/17 08:00:20;;;;;;;11.25;7.08;;;;;;;11.49;38.75;97304.65;1710611;83;21157;-80
2021/04/17 08:02:52;;;;;;;8.25;7.45;;;;;;;11.47;39.55;97297.82;1711561;84;21173;-78
2021/04/17 08:05:23;;;;;;;8.08;7.17;;;;;;;11.57;40.01;97294.80;1711478;83;21635;-76
2021/04/17 08:07:52;;;;;;;8.95;7.75;;;;;;;11.64;38.52;97303.06;1711764;83;21185;-77
2021/04/17 08:10:21;;;;;;;8.78;7.72;;;;;;;11.39;38.87;97299.75;1711467;83;21182;-79
2021/04/17 08:12:49;;;;;;;6.70;5.87;;;;;;;11.05;39.46;97307.72;1711728;83;21169;-80
2021/04/17 08:15:20;;;;;;;7.65;6.85;;;;;;;11.06;40.09;97293.58;1711639;84;21170;-76
2021/04/17 08:17:50;;;;;;;7.53;6.72;;;;;;;11.16;39.81;97294.53;1711963;83;21138;-77
2021/04/17 08:20:18;;;;;;;5.95;5.10;;;;;;;11.03;39.13;97297.77;1711780;83;21138;-78
2021/04/17 08:22:49;;;;;;;9.63;7.33;;;;;;;11.19;40.05;97292.95;1711422;84;21611;-77
2021/04/17 08:25:22;;;;;;;7.37;6.37;;;;;;;11.40;40.13;97286.45;1710599;83;21199;-78
2021/04/17 08:27:51;;;;;;;7.55;6.85;;;;;;;11.75;40.31;97277.09;1711593;83;21154;-77
2021/04/17 08:30:26;;;;;;;9.08;7.25;;;;;;;12.22;40.09;97279.41;1711512;83;21607;-81
2021/04/17 08:32:54;;;;;;;8.83;7.28;;;;;;;12.49;38.62;97278.88;1711713;84;21150;-77
2021/04/17 08:35:25;;;;;;;4.45;3.40;;;;;;;12.37;38.85;97272.84;1711693;84;21220;-79
2021/04/17 08:38:03;;;;;;;6.03;5.42;;;;;;;12.60;38.90;97271.34;1711468;83;21134;-78
2021/04/17 08:40:42;;;;;;;9.78;7.15;;;;;;;12.53;37.66;97271.02;1711612;83;21230;-77
2021/04/17 08:43:21;;;;;;;8.15;6.65;;;;;;;12.18;37.38;97259.00;1711531;83;21193;-80
2021/04/17 08:46:15;;;;;;;10.82;4.83;;;;;;;12.21;38.50;97257.91;1711354;84;21194;-76
2021/04/17 08:48:57;;;;;;;7.95;5.70;;;;;;;12.13;38.39;97262.03;1711945;83;21185;-79
2021/04/17 08:51:35;;;;;;;7.70;6.90;;;;;;;11.88;38.45;97261.89;1710977;83;21615;-77
2021/04/17 08:54:11;;;;;;;6.55;5.87;;;;;;;11.88;38.38;97257.92;1716888;83;21563;-78
2021/04/17 08:56:56;;;;;;;8.23;7.42;;;;;;;12.10;38.84;97253.06;1716971;83;21201;-79
2021/04/17 08:59:36;;;;;;;7.65;6.62;;;;;;;12.02;37.42;97245.77;1689505;83;21130;-80
2021/04/17 09:02:09;;;;;;;6.55;5.28;;;;;;;12.23;38.59;97247.58;1716667;83;21165;-76
2021/04/17 09:05:03;;;;;;;6.97;6.28;;;;;;;11.95;37.98;97247.70;1716860;83;21284;-80
2021/04/17 09:07:34;;;;;;;8.50;7.05;;;;;;;11.78;38.45;97234.09;1716589;83;21164;-78
2021/04/17 09:10:27;;;;;;;7.70;6.90;;;;;;;11.76;37.72;97232.06;1716387;83;21138;-77
2021/04/17 09:13:20;;;;;;;8.05;6.55;;;;;;;11.48;37.05;97238.30;1715512;83;21161;-77
2021/04/17 09:15:55;;;;;;;6.15;4.83;;;;;;;11.21;37.88;97235.63;1720884;82;21560;-76
2021/04/17 09:18:39;;;;;;;8.88;7.25;;;;;;;11.29;38.80;97229.73;1708915;82;21145;-81
2021/04/17 09:21:16;;;;;;;8.63;7.40;;;;;;;11.03;38.92;97234.46;1706531;82;21133;-78
2021/04/17 09:23:51;;;;;;;8.18;7.28;;;;;;;10.95;39.63;97225.83;1704896;84;21176;-77
2021/04/17 09:26:39;;;;;;;9.30;7.33;;;;;;;10.90;39.61;97224.05;1713816;83;21665;-78
2021/04/17 09:29:15;;;;;;;7.37;5.40;;;;;;;10.82;39.64;97223.34;1719365;82;21562;-80
2021/04/17 09:31:42;;;;;;;6.42;5.28;;;;;;;10.76;39.81;97220.70;1708409;83;21137;-82
2021/04/17 09:34:14;;;;;;;8.68;7.67;;;;;;;10.80;40.12;97209.46;1708450;84;21646;-80
2021/04/17 09:36:43;;;;;;;10.08;7.37;;;;;;;10.81;40.53;97209.79;1699392;80;21235;-74
2021/04/17 09:39:29;;;;;;;11.75;7.40;;;;;;;10.83;40.69;97196.51;1675843;85;21172;-74
2021/04/17 09:42:00;;;;;;;9.80;6.27;;;;;;;10.86;40.48;97212.06;1655787;86;21168;-79
2021/04/17 09:44:49;;;;;;;8.20;7.12;;;;;;;10.80;40.14;97191.00;1678035;85;21377;-78
2021/04/17 09:47:18;;;;;;;7.05;5.92;;;;;;;10.66;40.21;97196.05;1680292;85;21167;-78
2021/04/17 09:49:49;;;;;;;9.73;5.70;;;;;;;10.44;40.79;97203.50;1681565;85;21536;-76
2021/04/17 09:52:22;;;;;;;11.43;5.40;;;;;;;10.26;40.91;97199.13;1678571;85;21148;-77
2021/04/17 09:55:06;;;;;;;10.60;7.12;;;;;;;10.14;41.35;97196.97;1679887;84;21147;-78
2021/04/17 09:57:34;;;;;;;7.80;6.85;;;;;;;10.18;41.85;97186.55;1679695;85;21563;-76
2021/04/17 10:00:04;;;;;;;7.95;7.10;;;;;;;10.42;41.87;97190.91;1678895;85;21125;-81
2021/04/17 10:02:47;;;;;;;9.08;7.55;;;;;;;10.43;41.79;97196.05;1676353;85;21153;-82
2021/04/17 10:05:20;;;;;;;7.72;6.70;;;;;;;10.50;41.99;97198.20;1678144;85;21123;-75
2021/04/17 10:07:50;;;;;;;6.83;4.75;;;;;;;10.55;42.08;97198.20;1671421;85;21551;-76
2021/04/17 10:10:17;;;;;;;6.03;4.42;;;;;;;10.57;41.67;97202.05;1680037;85;21111;-77
2021/04/17 10:12:51;;;;;;;7.62;6.58;;;;;;;10.49;41.12;97190.78;1681633;85;21150;-75
2021/04/17 10:15:27;;;;;;;7.22;6.53;;;;;;;10.46;41.52;97190.55;1674743;85;21149;-73
2021/04/17 10:17:57;;;;;;;15.65;5.75;;;;;;;10.62;41.43;97181.42;1675235;85;21156;-75
2021/04/17 10:20:27;;;;;;;8.58;7.05;;;;;;;10.60;41.34;97173.66;1675533;85;21129;-77
2021/04/17 10:22:57;;;;;;;6.95;6.15;;;;;;;10.77;41.36;97181.52;1672126;85;21101;-81
2021/04/17 10:25:42;;;;;;;9.40;6.95;;;;;;;10.91;41.01;97177.77;1668445;85;21182;-80
2021/04/17 10:28:17;;;;;;;;;;;;;;;10.87;40.59;97173.72;1645246;86;21167;-78
2021/04/17 10:30:49;;;;;;;10.80;5.92;;;;;;;10.87;40.65;97167.13;1660054;86;20142;-82
2021/04/17 10:33:21;;;;;;;7.42;5.22;;;;;;;10.80;41.18;97151.45;1662216;86;21190;-78
2021/04/17 10:35:51;;;;;;;7.17;6.33;;;;;;;10.84;40.55;97172.64;1660412;86;21125;-73
2021/04/17 10:38:32;;;;;;;6.83;5.83;;;;;;;10.85;40.10;97169.05;1619120;85;21162;-76
2021/04/17 10:41:02;;;;;;;7.87;6.50;;;;;;;10.96;39.94;97160.75;1563117;92;21185;-75
2021/04/17 10:43:30;;;;;;;12.05;6.92;;;;;;;10.93;39.58;97156.08;1550276;92;21661;-76
2021/04/17 10:46:02;;;;;;;8.55;6.12;;;;;;;11.11;40.35;97155.55;1543832;92;21234;-83
2021/04/17 10:48:45;;;;;;;5.70;4.42;;;;;;;11.23;40.54;97149.73;1600950;89;21143;-77
2021/04/17 10:51:17;;;;;;;6.53;5.37;;;;;;;11.25;39.40;97153.09;1604493;89;21600;-80
2021/04/17 10:53:49;;;;;;;8.58;5.85;;;;;;;11.14;40.86;97143.43;1613019;88;21605;-87
2021/04/17 10:56:20;;;;;;;7.78;5.58;;;;;;;11.11;39.71;97138.39;1596848;89;21171;-84
2021/04/17 10:59:04;;;;;;;6.53;5.50;;;;;;;11.05;40.10;97140.23;1606269;89;21164;-79
2021/04/17 11:01:37;;;;;;;9.08;5.47;;;;;;;11.00;38.55;97134.01;1616575;89;21542;-85
2021/04/17 11:04:05;;;;;;;6.37;5.37;;;;;;;11.07;37.28;97134.35;1584038;90;22239;-83
2021/04/17 11:06:37;;;;;;;5.62;3.27;;;;;;;11.23;39.00;97122.89;1609096;89;21175;-82
2021/04/17 11:09:10;;;;;;;6.37;3.62;;;;;;;11.33;39.04;97124.27;1618477;89;21593;-85
2021/04/17 11:11:55;;;;;;;5.15;4.15;;;;;;;11.23;39.35;97128.16;1616930;89;21152;-84
2021/04/17 11:14:26;;;;;;;5.25;4.05;;;;;;;11.33;39.10;97124.77;1618336;89;21168;-82
2021/04/17 11:16:54;;;;;;;6.70;5.70;;;;;;;11.24;39.64;97117.12;1563620;91;21142;-80
2021/04/17 11:19:34;;;;;;;6.78;5.37;;;;;;;11.09;39.77;97111.30;1596720;89;21172;-82
2021/04/17 11:22:25;;;;;;;4.80;4.10;;;;;;;11.04;38.45;97122.23;1608882;89;21146;-74
2021/04/17 11:25:05;;;;;;;6.72;5.20;;;;;;;11.18;39.45;97118.95;1617251;89;21199;-74
2021/04/17 11:27:34;;;;;;;7.17;5.47;;;;;;;11.28;39.16;97130.42;1594190;90;21179;-77
2021/04/17 11:30:05;;;;;;;4.95;3.85;;;;;;;11.36;39.36;97116.60;1555614;92;21185;-79
2021/04/17 11:32:34;;;;;;;5.53;4.67;;;;;;;11.56;38.98;97118.89;1610480;87;21561;-80
2021/04/17 11:35:08;;;;;;;4.62;4.12;;;;;;;11.65;38.66;97111.98;1609179;89;21151;-83
2021/04/17 11:37:35;;;;;;;7.62;4.22;;;;;;;11.66;38.91;97110.55;1620428;85;21194;-83
2021/04/17 11:40:05;;;;;;;6.03;5.33;;;;;;;11.73;38.11;97120.11;1668246;85;21115;-88
2021/04/17 11:42:33;;;;;;;4.10;2.65;;;;;;;11.71;38.73;97105.70;1672322;85;21165;-81
2021/04/17 11:45:00;;;;;;;4.90;4.37;;;;;;;11.98;38.37;97107.48;1667495;86;21159;-91
2021/04/17 11:47:29;;;;;;;5.92;4.22;;;;;;;11.92;37.66;97108.80;1667263;85;21131;-85
2021/04/17 11:49:57;;;;;;;6.58;4.90;;;;;;;12.00;38.22;97112.98;1666270;85;21147;-78
2021/04/17 11:52:24;;;;;;;7.47;5.40;;;;;;;12.03;37.91;97103.94;1668312;85;21131;-76
2021/04/17 11:54:52;;;;;;;8.40;5.17;;;;;;;12.10;37.89;97107.75;1666863;85;21585;-75